Time;durP1;ratioP1;P1;durP2;ratioP2;P2;SDS_P1;SDS_P2;PMS_P1;PMS_P2;Temp;Humidity;BMP_temperature;BMP_pressure;BME280_temperature;BME280_humidity;BME280_pressure;Samples;Min_cycle;Max_cycle;Signal;HPM_P1;HPM_P2
2021/07/10 00:00:38;;;;;;;20.98;12.77;;;;;;;16.13;100.00;100951.41;5191833;28;20277;-80
2021/07/10 00:03:08;;;;;;;13.50;11.10;;;;;;;16.19;100.00;100938.75;5165450;28;20067;-79
2021/07/10 00:05:39;;;;;;;19.70;12.65;;;;;;;16.14;100.00;100940.81;5188077;28;20039;-78
2021/07/10 00:08:09;;;;;;;17.98;12.13;;;;;;;16.18;100.00;100934.44;5191208;28;20037;-78
2021/07/10 00:10:39;;;;;;;14.23;10.35;;;;;;;16.16;100.00;100938.94;5176419;28;20021;-79
2021/07/10 00:13:10;;;;;;;19.70;11.77;;;;;;;16.15;100.00;100937.22;5174011;28;20026;-79
2021/07/10 00:15:40;;;;;;;20.38;12.80;;;;;;;16.06;100.00;100927.16;5190047;28;20037;-79
2021/07/10 00:18:12;;;;;;;20.98;11.13;;;;;;;16.15;100.00;100926.69;5189720;28;20041;-79
2021/07/10 00:20:43;;;;;;;16.77;10.35;;;;;;;16.15;100.00;100926.69;5189425;28;20033;-79
2021/07/10 00:23:13;;;;;;;17.08;10.82;;;;;;;16.12;100.00;100921.56;5171205;28;20033;-80
2021/07/10 00:25:44;;;;;;;15.35;10.52;;;;;;;16.10;100.00;100922.56;5177082;28;20411;-78
2021/07/10 00:28:14;;;;;;;21.05;12.10;;;;;;;16.09;100.00;100928.78;5191455;28;20030;-79
2021/07/10 00:30:44;;;;;;;16.88;11.27;;;;;;;16.15;100.00;100933.72;5180791;28;20044;-79
2021/07/10 00:33:15;;;;;;;15.07;10.68;;;;;;;16.05;100.00;100930.72;5192599;28;20040;-79
2021/07/10 00:35:45;;;;;;;16.45;11.63;;;;;;;16.07;100.00;100935.91;5196609;28;20519;-79
2021/07/10 00:38:16;;;;;;;14.93;10.57;;;;;;;16.07;100.00;100923.56;5195921;28;20390;-79
2021/07/10 00:40:46;;;;;;;19.00;11.55;;;;;;;16.04;100.00;100933.44;5196664;28;20397;-80
2021/07/10 00:43:16;;;;;;;19.60;12.85;;;;;;;16.05;100.00;100924.59;5195238;28;20032;-79
2021/07/10 00:45:47;;;;;;;19.35;11.70;;;;;;;16.14;100.00;100926.75;5196680;28;20136;-80
2021/07/10 00:48:17;;;;;;;16.25;10.63;;;;;;;16.09;100.00;100921.75;5178218;28;20045;-78
2021/07/10 00:50:48;;;;;;;15.70;11.57;;;;;;;16.12;100.00;100929.47;5178511;28;20037;-79
2021/07/10 00:53:18;;;;;;;16.15;10.43;;;;;;;16.11;100.00;100914.59;5195304;28;20322;-79
2021/07/10 00:55:49;;;;;;;17.70;12.05;;;;;;;16.05;100.00;100930.72;5193242;28;20045;-79
2021/07/10 00:58:20;;;;;;;17.42;11.05;;;;;;;16.18;100.00;100930.94;5193142;28;20022;-79
2021/07/10 01:00:50;;;;;;;14.95;10.90;;;;;;;16.18;100.00;100921.25;5188448;28;20022;-78
2021/07/10 01:03:21;;;;;;;17.63;12.20;;;;;;;16.14;100.00;100919.69;5190052;28;20897;-79
2021/07/10 01:05:51;;;;;;;17.45;12.20;;;;;;;16.47;100.00;100907.38;5194196;28;20281;-79
2021/07/10 01:08:22;;;;;;;20.50;11.90;;;;;;;16.46;100.00;100903.03;5196894;28;20052;-79
2021/07/10 01:10:53;;;;;;;24.27;11.63;;;;;;;16.50;100.00;100907.22;5194046;28;20300;-79
2021/07/10 01:13:24;;;;;;;20.00;12.02;;;;;;;16.38;100.00;100917.59;5196924;28;20040;-79
2021/07/10 01:15:56;;;;;;;18.63;11.35;;;;;;;16.30;100.00;100904.78;5193260;28;20018;-79
2021/07/10 01:18:26;;;;;;;18.10;12.15;;;;;;;16.25;100.00;100898.88;5197628;28;20109;-80
2021/07/10 01:20:57;;;;;;;19.60;12.20;;;;;;;16.01;100.00;100909.88;5175541;28;20108;-79
2021/07/10 01:23:27;;;;;;;17.88;11.27;;;;;;;16.08;100.00;100898.06;5197481;28;20033;-79
2021/07/10 01:25:57;;;;;;;25.52;13.73;;;;;;;16.04;100.00;100897.38;5192765;28;20033;-79
2021/07/10 01:28:28;;;;;;;23.95;12.60;;;;;;;16.16;100.00;100888.81;5193156;28;20030;-79
2021/07/10 01:31:00;;;;;;;19.08;12.65;;;;;;;16.07;100.00;100891.94;5197173;28;20036;-79
2021/07/10 01:33:30;;;;;;;19.42;13.52;;;;;;;16.04;100.00;100889.47;5193603;28;20108;-79
2021/07/10 01:36:00;;;;;;;21.17;12.85;;;;;;;16.00;100.00;100881.78;5196973;28;20491;-79
2021/07/10 01:38:30;;;;;;;20.05;12.48;;;;;;;16.03;100.00;100879.84;5193103;28;20026;-80
2021/07/10 01:41:01;;;;;;;21.75;12.15;;;;;;;15.96;100.00;100886.41;5195574;28;20049;-79
2021/07/10 01:43:31;;;;;;;16.30;11.65;;;;;;;15.79;100.00;100881.16;5193356;28;20021;-79
2021/07/10 01:46:01;;;;;;;16.95;11.10;;;;;;;15.76;100.00;100889.22;5196083;28;20018;-79
2021/07/10 01:48:32;;;;;;;18.98;10.73;;;;;;;15.74;100.00;100885.78;5193617;28;20110;-79
2021/07/10 01:51:02;;;;;;;22.05;12.32;;;;;;;15.61;100.00;100890.00;5195350;28;20021;-79
2021/07/10 01:53:33;;;;;;;16.10;11.98;;;;;;;15.60;100.00;100892.69;5194397;28;20030;-80
2021/07/10 01:56:03;;;;;;;19.00;12.13;;;;;;;15.67;100.00;100892.31;5177724;28;20035;-79
2021/07/10 01:58:34;;;;;;;25.05;14.18;;;;;;;16.02;100.00;100888.69;5173559;28;20387;-78
2021/07/10 02:01:04;;;;;;;28.88;14.77;;;;;;;16.01;100.00;100886.16;5178143;28;20529;-79
2021/07/10 02:03:34;;;;;;;23.80;14.60;;;;;;;16.01;100.00;100886.16;5189451;28;20114;-79
2021/07/10 02:06:04;;;;;;;25.85;14.77;;;;;;;15.97;100.00;100888.09;5192293;28;20021;-79
2021/07/10 02:08:35;;;;;;;25.35;16.02;;;;;;;15.92;100.00;100887.50;5180872;28;20060;-79
2021/07/10 02:11:05;;;;;;;33.05;16.98;;;;;;;15.90;100.00;100889.31;5194843;23;20464;-79
2021/07/10 02:13:36;;;;;;;32.90;17.20;;;;;;;15.96;100.00;100888.16;5246513;28;20032;-80
2021/07/10 02:16:07;;;;;;;29.50;15.80;;;;;;;15.99;100.00;100885.34;5244538;28;20024;-79
2021/07/10 02:18:37;;;;;;;27.02;15.13;;;;;;;16.17;100.00;100893.16;5246590;28;20027;-79
2021/07/10 02:21:09;;;;;;;27.95;16.30;;;;;;;16.18;100.00;100894.03;5246656;28;20024;-79
2021/07/10 02:23:39;;;;;;;23.50;16.25;;;;;;;16.30;100.00;100888.94;5245814;28;20031;-79
2021/07/10 02:26:09;;;;;;;31.88;18.58;;;;;;;16.28;100.00;100889.94;5247225;28;20111;-79
2021/07/10 02:28:40;;;;;;;30.67;17.67;;;;;;;16.32;100.00;100881.78;5246254;28;20028;-79
2021/07/10 02:31:11;;;;;;;31.20;16.70;;;;;;;16.40;100.00;100879.59;5246704;28;20084;-79
2021/07/10 02:33:42;;;;;;;29.02;17.80;;;;;;;16.32;100.00;100881.78;5246708;28;20074;-79
2021/07/10 02:36:12;;;;;;;27.75;18.10;;;;;;;16.25;100.00;100880.41;5245710;28;20062;-79
2021/07/10 02:38:42;;;;;;;30.75;17.95;;;;;;;16.23;100.00;100878.78;5247348;28;20052;-80
2021/07/10 02:41:14;;;;;;;29.65;18.30;;;;;;;16.18;100.00;100881.69;5243109;28;20304;-79
2021/07/10 02:43:44;;;;;;;29.33;18.30;;;;;;;16.20;100.00;100874.53;5246202;28;20033;-80
2021/07/10 02:46:17;;;;;;;32.85;18.75;;;;;;;16.28;100.00;100877.63;5247643;28;20024;-79
2021/07/10 02:48:48;;;;;;;37.20;20.67;;;;;;;16.40;100.00;100881.41;5246569;28;20038;-79
2021/07/10 02:51:18;;;;;;;48.13;23.23;;;;;;;16.23;100.00;100884.91;5247449;28;20378;-80
2021/07/10 02:53:48;;;;;;;40.75;22.23;;;;;;;16.26;100.00;100887.41;5245939;28;20032;-79
2021/07/10 02:56:19;;;;;;;40.58;22.75;;;;;;;16.26;100.00;100887.41;5245619;28;20024;-80
2021/07/10 02:58:50;;;;;;;44.63;23.13;;;;;;;16.41;100.00;100885.75;5245203;28;20020;-80
2021/07/10 03:01:21;;;;;;;40.65;23.23;;;;;;;16.23;100.00;100884.91;5243407;28;20271;-79
2021/07/10 03:03:51;;;;;;;41.65;23.13;;;;;;;16.14;100.00;100881.91;5244505;28;20028;-80
2021/07/10 03:06:22;;;;;;;44.08;24.60;;;;;;;16.22;100.00;100885.84;5245001;28;20052;-80
2021/07/10 03:08:52;;;;;;;40.03;22.75;;;;;;;16.09;100.00;100886.59;5243946;28;20023;-79
2021/07/10 03:11:22;;;;;;;40.92;23.05;;;;;;;16.14;100.00;100882.78;5245763;28;20031;-80
2021/07/10 03:13:53;;;;;;;43.85;23.17;;;;;;;16.20;100.00;100876.34;5245793;28;20044;-80
2021/07/10 03:16:23;;;;;;;45.78;23.85;;;;;;;16.16;100.00;100894.09;5246882;28;20035;-80
2021/07/10 03:18:53;;;;;;;38.15;23.02;;;;;;;16.11;100.00;100895.25;5245913;28;20032;-79
2021/07/10 03:21:23;;;;;;;47.08;24.70;;;;;;;16.14;100.00;100897.75;5245954;28;20324;-80
2021/07/10 03:23:54;;;;;;;40.22;23.42;;;;;;;16.04;100.00;100894.72;5246581;28;20326;-80
2021/07/10 03:26:24;;;;;;;45.97;24.13;;;;;;;16.13;100.00;100902.19;5246514;28;20024;-80
2021/07/10 03:28:54;;;;;;;47.53;24.55;;;;;;;15.96;100.00;100893.44;5247271;28;20470;-80
2021/07/10 03:31:24;;;;;;;33.45;21.25;;;;;;;16.11;100.00;100885.59;5245748;28;20027;-80
2021/07/10 03:33:55;;;;;;;42.88;23.00;;;;;;;16.07;100.00;100878.75;5245202;28;20103;-80
2021/07/10 03:36:26;;;;;;;45.30;22.90;;;;;;;15.99;100.00;100873.03;5246203;28;20382;-80
2021/07/10 03:38:56;;;;;;;43.30;21.90;;;;;;;16.00;100.00;100869.47;5247308;28;20407;-80
2021/07/10 03:41:26;;;;;;;38.03;22.10;;;;;;;15.95;100.00;100871.50;5244975;28;20044;-80
2021/07/10 03:43:57;;;;;;;36.25;21.90;;;;;;;15.99;100.00;100873.03;5246234;28;20145;-80
2021/07/10 03:46:27;;;;;;;33.90;19.33;;;;;;;16.10;100.00;100886.53;5246974;28;20029;-80
2021/07/10 03:48:57;;;;;;;31.60;19.55;;;;;;;16.08;100.00;100869.91;5245564;28;20028;-80
2021/07/10 03:51:28;;;;;;;29.27;18.85;;;;;;;16.08;100.00;100885.72;5247099;28;20440;-80
2021/07/10 03:53:58;;;;;;;31.88;18.42;;;;;;;16.06;100.00;100884.94;5247268;28;20033;-80
2021/07/10 03:56:28;;;;;;;32.60;19.30;;;;;;;16.04;100.00;100886.00;5244315;28;20755;-80
2021/07/10 03:58:59;;;;;;;43.10;21.27;;;;;;;15.80;100.00;100872.31;5245448;28;20504;-79
2021/07/10 04:01:31;;;;;;;32.40;19.98;;;;;;;15.91;100.00;100877.00;5246543;28;20070;-80
2021/07/10 04:04:03;;;;;;;35.90;19.30;;;;;;;16.18;100.00;100865.84;5247660;28;20055;-80
2021/07/10 04:06:33;;;;;;;36.47;19.77;;;;;;;16.23;100.00;100869.09;5247856;28;20107;-80
2021/07/10 04:09:04;;;;;;;38.67;19.38;;;;;;;16.23;100.00;100860.34;5250746;28;20050;-80
2021/07/10 04:11:34;;;;;;;31.80;19.70;;;;;;;16.18;100.00;100862.38;5248700;28;20354;-80
2021/07/10 04:14:05;;;;;;;32.40;19.67;;;;;;;16.26;100.00;100863.66;5249614;28;20090;-80
2021/07/10 04:16:35;;;;;;;31.80;20.08;;;;;;;16.50;100.00;100869.41;5249398;28;20393;-80
2021/07/10 04:19:05;;;;;;;30.08;18.17;;;;;;;16.47;100.00;100867.81;5247876;28;20056;-80
2021/07/10 04:21:35;;;;;;;31.17;19.88;;;;;;;16.43;100.00;100870.69;5249625;28;20092;-80
2021/07/10 04:24:06;;;;;;;38.42;19.73;;;;;;;16.65;100.00;100877.34;5250668;28;20043;-80
2021/07/10 04:26:36;;;;;;;36.95;20.27;;;;;;;16.55;100.00;100878.78;5248811;28;20028;-80
2021/07/10 04:29:06;;;;;;;35.17;19.92;;;;;;;16.58;100.00;100875.97;5250833;28;20021;-79
2021/07/10 04:31:36;;;;;;;32.00;19.13;;;;;;;16.69;100.00;100886.78;5249703;28;20024;-80
2021/07/10 04:34:07;;;;;;;36.95;19.48;;;;;;;16.71;100.00;100884.91;5251003;28;20032;-80
2021/07/10 04:36:37;;;;;;;31.13;18.50;;;;;;;16.58;100.00;100893.59;5250685;28;20035;-79
2021/07/10 04:39:07;;;;;;;40.55;18.85;;;;;;;16.61;100.00;100883.72;5248525;28;20016;-79
2021/07/10 04:41:38;;;;;;;31.95;19.10;;;;;;;16.57;100.00;100887.44;5247026;28;20050;-79
2021/07/10 04:44:08;;;;;;;33.58;19.92;;;;;;;16.59;100.00;100890.84;5248452;28;20478;-80
2021/07/10 04:46:38;;;;;;;37.10;19.95;;;;;;;16.51;100.00;100890.44;5248185;28;20512;-79
2021/07/10 04:49:10;;;;;;;35.05;20.23;;;;;;;16.41;100.00;100891.88;5247839;28;20035;-79
2021/07/10 04:51:40;;;;;;;33.55;19.17;;;;;;;16.61;100.00;100891.66;5247457;28;20064;-79
2021/07/10 04:54:11;;;;;;;30.17;18.17;;;;;;;16.65;100.00;100893.19;5248355;28;20048;-79
2021/07/10 04:56:41;;;;;;;28.08;18.05;;;;;;;16.72;100.00;100889.25;5248977;28;20036;-79
2021/07/10 04:59:11;;;;;;;30.80;18.42;;;;;;;16.67;100.00;100890.44;5248083;28;20028;-79
2021/07/10 05:01:42;;;;;;;28.80;19.00;;;;;;;16.60;100.00;100897.88;5248693;28;20518;-80
2021/07/10 05:04:12;;;;;;;32.33;19.53;;;;;;;16.35;100.00;100894.84;5248995;28;20025;-79
2021/07/10 05:06:42;;;;;;;27.35;17.77;;;;;;;16.68;100.00;100895.63;5248857;28;20270;-79
2021/07/10 05:09:12;;;;;;;29.20;17.15;;;;;;;16.55;100.00;100897.25;5249391;28;20050;-79
2021/07/10 05:11:43;;;;;;;29.40;17.30;;;;;;;16.59;100.00;100901.41;5248795;28;20082;-79
2021/07/10 05:14:15;;;;;;;26.75;18.10;;;;;;;16.53;100.00;100899.13;5247463;28;20112;-79
2021/07/10 05:16:47;;;;;;;28.35;17.63;;;;;;;16.78;100.00;100899.50;5249640;28;20142;-79
2021/07/10 05:19:17;;;;;;;23.48;16.13;;;;;;;16.85;100.00;100900.84;5249333;28;20218;-79
2021/07/10 05:21:47;;;;;;;25.35;16.60;;;;;;;16.90;100.00;100897.00;5248557;28;20040;-79
2021/07/10 05:24:18;;;;;;;28.38;16.38;;;;;;;17.37;100.00;100894.31;5248768;28;20115;-79
2021/07/10 05:26:48;;;;;;;24.02;15.38;;;;;;;17.46;100.00;100893.78;5248352;28;20038;-80
2021/07/10 05:29:18;;;;;;;30.00;16.65;;;;;;;17.34;100.00;100903.25;5248568;28;20421;-79
2021/07/10 05:31:48;;;;;;;23.00;16.58;;;;;;;17.19;100.00;100892.72;5247458;28;20024;-79
2021/07/10 05:34:19;;;;;;;23.60;15.13;;;;;;;17.45;100.00;100895.56;5247023;28;20368;-79
2021/07/10 05:36:49;;;;;;;25.38;15.52;;;;;;;17.89;100.00;100896.44;5247302;28;20271;-80
2021/07/10 05:39:20;;;;;;;26.95;16.58;;;;;;;18.02;100.00;100888.59;5247311;28;20478;-79
2021/07/10 05:41:50;;;;;;;24.13;15.15;;;;;;;18.03;100.00;100887.66;5246132;28;20047;-79
2021/07/10 05:44:21;;;;;;;24.95;16.73;;;;;;;17.46;100.00;100894.63;5247830;28;20020;-79
2021/07/10 05:46:51;;;;;;;25.65;15.10;;;;;;;17.75;100.00;100892.91;5247681;28;20052;-79
2021/07/10 05:49:22;;;;;;;22.80;15.48;;;;;;;17.69;100.00;100888.00;5247857;28;20021;-80
2021/07/10 05:51:52;;;;;;;27.05;14.93;;;;;;;17.51;100.00;100889.09;5247030;28;20036;-79
2021/07/10 05:54:22;;;;;;;21.30;14.25;;;;;;;17.55;100.00;100896.75;5245862;28;20024;-80
2021/07/10 05:56:53;;;;;;;24.77;15.10;;;;;;;17.67;100.00;100897.81;5245545;28;20084;-80
2021/07/10 05:59:23;;;;;;;25.90;16.00;;;;;;;17.33;100.00;100900.69;5247265;28;20426;-80
2021/07/10 06:01:54;;;;;;;22.42;14.90;;;;;;;17.65;100.00;100907.63;5247228;28;20183;-80
2021/07/10 06:04:24;;;;;;;21.63;14.77;;;;;;;17.69;100.00;100903.84;5246761;28;20056;-79
2021/07/10 06:06:54;;;;;;;21.60;15.65;;;;;;;17.36;100.00;100913.75;5245603;28;20289;-80
2021/07/10 06:09:24;;;;;;;21.03;14.70;;;;;;;17.42;100.00;100910.75;5244774;28;20485;-80
2021/07/10 06:11:55;;;;;;;20.02;14.85;;;;;;;17.64;100.00;100917.34;5240647;28;20263;-80
2021/07/10 06:14:26;;;;;;;23.35;14.85;;;;;;;17.61;100.00;100914.00;5244552;28;20036;-79
2021/07/10 06:16:57;;;;;;;20.38;14.00;;;;;;;17.81;100.00;100913.72;5244825;28;20035;-79
2021/07/10 06:19:28;;;;;;;21.13;15.90;;;;;;;17.93;100.00;100910.31;5243782;28;20021;-80
2021/07/10 06:21:59;;;;;;;21.08;13.68;;;;;;;18.15;100.00;100910.72;5241886;28;20039;-79
2021/07/10 06:24:30;;;;;;;20.48;13.27;;;;;;;17.80;100.00;100912.00;5240912;28;20020;-80
2021/07/10 06:27:01;;;;;;;18.60;13.30;;;;;;;17.99;100.00;100913.44;5244854;28;20020;-80
2021/07/10 06:29:32;;;;;;;19.10;12.93;;;;;;;17.84;100.00;100913.53;5245690;28;20513;-79
2021/07/10 06:32:02;;;;;;;23.25;13.98;;;;;;;18.05;100.00;100909.56;5244876;28;20154;-79
2021/07/10 06:34:34;;;;;;;16.90;12.52;;;;;;;18.44;100.00;100909.78;5245428;28;20025;-80
2021/07/10 06:37:05;;;;;;;18.88;12.32;;;;;;;18.79;100.00;100919.88;5245188;28;20027;-80
2021/07/10 06:39:35;;;;;;;20.55;12.32;;;;;;;18.82;100.00;100917.03;5244299;28;20021;-80
2021/07/10 06:42:05;;;;;;;16.85;11.32;;;;;;;19.41;96.46;100912.22;5244669;28;20040;-80
2021/07/10 06:44:36;;;;;;;16.00;10.65;;;;;;;20.64;92.53;100906.22;5247342;28;20024;-79
2021/07/10 06:47:06;;;;;;;15.20;9.95;;;;;;;21.36;91.55;100907.06;5246967;28;20089;-80
2021/07/10 06:49:36;;;;;;;13.07;10.60;;;;;;;20.94;90.64;100912.91;5247903;28;20043;-80
2021/07/10 06:52:07;;;;;;;13.55;8.13;;;;;;;22.46;87.40;100911.84;5247936;28;20024;-80
2021/07/10 06:54:38;;;;;;;11.05;8.23;;;;;;;22.29;81.91;100912.31;5247433;28;20028;-80
2021/07/10 06:57:08;;;;;;;12.50;8.05;;;;;;;23.14;80.69;100921.34;5248185;28;20090;-81
2021/07/10 06:59:38;;;;;;;13.10;8.20;;;;;;;22.55;80.84;100924.44;5246148;28;20031;-80
2021/07/10 07:02:09;;;;;;;13.32;8.02;;;;;;;22.48;82.10;100918.78;5246156;28;20287;-80
2021/07/10 07:04:39;;;;;;;10.85;8.10;;;;;;;22.62;82.00;100923.81;5248100;28;20031;-80
2021/07/10 07:07:10;;;;;;;12.30;7.90;;;;;;;21.93;83.49;100923.97;5247079;28;20024;-80
2021/07/10 07:09:40;;;;;;;13.52;7.60;;;;;;;21.23;84.79;100921.41;5247897;28;20463;-80
2021/07/10 07:12:10;;;;;;;10.35;7.05;;;;;;;21.06;87.25;100938.56;5245905;28;20028;-79
2021/07/10 07:14:41;;;;;;;10.02;7.32;;;;;;;21.36;85.06;100930.13;5247609;28;20091;-80
2021/07/10 07:17:11;;;;;;;10.07;7.53;;;;;;;21.41;84.50;100928.00;5246956;28;20024;-80
2021/07/10 07:19:41;;;;;;;10.55;7.20;;;;;;;21.34;83.69;100926.75;5247679;28;20028;-80
2021/07/10 07:22:12;;;;;;;10.43;6.20;;;;;;;21.82;81.22;100925.75;5245939;28;20039;-80
2021/07/10 07:24:42;;;;;;;11.33;6.70;;;;;;;21.78;81.64;100925.13;5246282;28;20271;-80
2021/07/10 07:27:12;;;;;;;10.43;6.65;;;;;;;21.28;85.76;100922.75;5244905;28;21024;-80
2021/07/10 07:29:42;;;;;;;12.13;7.00;;;;;;;21.21;87.73;100918.84;5263443;28;20027;-80
2021/07/10 07:32:13;;;;;;;11.67;7.00;;;;;;;21.57;85.61;100918.75;5247583;28;20580;-80
2021/07/10 07:34:47;;;;;;;10.32;6.85;;;;;;;21.62;86.96;100927.28;5246774;28;20386;-80
2021/07/10 07:37:18;;;;;;;9.60;6.57;;;;;;;21.26;87.24;100929.16;5251218;28;20447;-80
2021/07/10 07:39:49;;;;;;;9.07;6.85;;;;;;;20.58;85.69;100925.28;5248669;28;20218;-80
2021/07/10 07:42:19;;;;;;;10.15;6.55;;;;;;;20.95;85.26;100922.56;5251445;28;20028;-81
2021/07/10 07:44:49;;;;;;;8.63;5.85;;;;;;;21.32;83.75;100924.22;5250597;28;20062;-80
2021/07/10 07:47:19;;;;;;;8.47;5.87;;;;;;;21.37;86.18;100921.22;5250419;28;20032;-80
2021/07/10 07:49:50;;;;;;;7.97;6.03;;;;;;;21.25;87.12;100922.97;5251658;28;20266;-80
2021/07/10 07:52:20;;;;;;;8.25;5.32;;;;;;;21.16;85.55;100928.97;5250095;28;20020;-80
2021/07/10 07:54:50;;;;;;;10.13;5.30;;;;;;;21.30;85.76;100927.94;5251370;28;20367;-80
2021/07/10 07:57:21;;;;;;;10.60;5.40;;;;;;;20.72;85.36;100931.31;5251573;28;20097;-80
2021/07/10 07:59:51;;;;;;;8.47;5.30;;;;;;;20.97;85.30;100923.31;5249475;28;20030;-80
2021/07/10 08:02:23;;;;;;;10.40;5.35;;;;;;;20.55;85.45;100920.19;5249537;28;20287;-80
2021/07/10 08:04:53;;;;;;;7.00;5.22;;;;;;;20.72;89.10;100917.19;5251015;28;20527;-80
2021/07/10 08:07:23;;;;;;;8.90;4.82;;;;;;;21.44;84.25;100912.66;5250749;28;20024;-80
2021/07/10 08:09:54;;;;;;;7.83;5.20;;;;;;;22.61;82.30;100913.31;5250465;28;20020;-80
2021/07/10 08:12:24;;;;;;;8.02;4.72;;;;;;;23.41;76.92;100900.41;5250573;28;20340;-80
2021/07/10 08:14:55;;;;;;;7.97;4.88;;;;;;;22.73;77.90;100904.34;5249891;28;20020;-80
2021/07/10 08:17:25;;;;;;;7.78;4.97;;;;;;;24.02;74.78;100903.13;5251191;28;20051;-81
2021/07/10 08:19:55;;;;;;;10.45;4.40;;;;;;;22.96;77.83;100906.81;5250900;28;20016;-80
2021/07/10 08:22:26;;;;;;;7.20;4.55;;;;;;;22.49;77.32;100903.63;5251156;28;20032;-80
2021/07/10 08:24:56;;;;;;;7.43;4.38;;;;;;;22.06;79.66;100905.25;5250507;28;20033;-80
2021/07/10 08:27:27;;;;;;;6.80;4.35;;;;;;;21.52;81.46;100898.78;5248500;28;20021;-80
2021/07/10 08:29:57;;;;;;;9.50;5.27;;;;;;;21.18;84.53;100899.59;5248657;28;20047;-80
2021/07/10 08:32:27;;;;;;;9.82;6.15;;;;;;;21.60;86.17;100901.72;5266245;28;20274;-80
2021/07/10 08:34:58;;;;;;;9.07;5.53;;;;;;;22.29;81.98;100896.31;5250945;28;20567;-80
2021/07/10 08:37:28;;;;;;;12.45;7.72;;;;;;;22.56;82.13;100896.84;5250415;28;20271;-80
2021/07/10 08:39:58;;;;;;;11.77;5.80;;;;;;;23.53;76.64;100899.41;5245535;28;20016;-80
2021/07/10 08:42:29;;;;;;;7.93;5.10;;;;;;;22.54;80.26;100898.75;5248942;28;20028;-80
2021/07/10 08:45:07;;;;;;;10.60;5.57;;;;;;;23.58;77.08;100898.03;5250744;28;20024;-80
2021/07/10 08:47:41;;;;;;;11.98;6.25;;;;;;;23.64;77.49;100897.50;5247511;28;20283;-80
2021/07/10 08:50:14;;;;;;;10.05;5.28;;;;;;;23.63;79.86;100903.81;5247065;28;20028;-81
2021/07/10 08:52:45;;;;;;;8.35;5.15;;;;;;;25.32;73.89;100893.22;5247488;28;20308;-80
2021/07/10 08:55:16;;;;;;;12.23;6.25;;;;;;;24.87;73.54;100897.34;5249268;28;20016;-81
2021/07/10 08:57:46;;;;;;;11.63;5.28;;;;;;;25.32;74.49;100895.91;5248631;28;20028;-81
2021/07/10 09:00:24;;;;;;;8.05;5.00;;;;;;;27.57;66.17;100891.66;5250439;28;20032;-81
2021/07/10 09:02:56;;;;;;;7.47;5.00;;;;;;;26.96;68.36;100885.31;5249698;28;20052;-81
2021/07/10 09:05:27;;;;;;;9.73;5.63;;;;;;;26.13;70.06;100888.19;5250844;28;20027;-81
2021/07/10 09:08:19;;;;;;;10.25;6.78;;;;;;;24.70;73.56;100889.97;5249370;28;20645;-81
2021/07/10 09:11:13;;;;;;;9.93;7.32;;;;;;;24.69;75.21;100890.13;5250354;28;20251;-77
2021/07/10 09:13:48;;;;;;;11.40;7.07;;;;;;;25.68;69.93;100881.81;5249807;28;20039;-81
2021/07/10 09:16:23;;;;;;;10.07;6.68;;;;;;;25.75;70.17;100878.41;5252349;28;20037;-79
2021/07/10 09:19:07;;;;;;;13.48;6.40;;;;;;;26.12;69.72;100883.84;5253217;28;20070;-78
2021/07/10 09:21:44;;;;;;;8.55;6.63;;;;;;;24.88;74.65;100893.69;5248671;28;20025;-80
2021/07/10 09:24:16;;;;;;;9.82;6.05;;;;;;;25.18;73.47;100885.56;5252960;28;20398;-79
2021/07/10 09:26:49;;;;;;;8.63;6.18;;;;;;;24.41;74.32;100877.47;5252965;28;20024;-80
2021/07/10 09:29:22;;;;;;;8.98;6.55;;;;;;;24.80;75.66;100882.84;5251351;28;20083;-79
2021/07/10 09:31:54;;;;;;;10.15;6.88;;;;;;;23.73;79.36;100882.53;5250277;28;20020;-79
2021/07/10 09:34:32;;;;;;;11.27;5.95;;;;;;;25.80;74.26;100876.13;5267943;28;20024;-79
2021/07/10 09:37:06;;;;;;;8.63;5.75;;;;;;;26.58;72.22;100873.97;5247384;28;20031;-80
2021/07/10 09:39:43;;;;;;;13.30;6.28;;;;;;;26.58;69.91;100878.47;5249358;28;20055;-80
2021/07/10 09:42:15;;;;;;;12.02;7.07;;;;;;;24.94;74.26;100883.28;5250470;28;20032;-80
2021/07/10 09:44:51;;;;;;;12.13;6.78;;;;;;;24.67;75.19;100875.03;5248254;28;20445;-81
2021/07/10 09:47:30;;;;;;;8.90;6.50;;;;;;;24.74;76.66;100873.53;5249898;28;20028;-79
2021/07/10 09:50:07;;;;;;;11.20;6.55;;;;;;;24.62;74.00;100870.25;5245666;28;20111;-78
2021/07/10 09:52:38;;;;;;;12.30;6.78;;;;;;;25.60;72.01;100870.94;5249885;28;20547;-80
2021/07/10 09:55:14;;;;;;;10.73;6.30;;;;;;;26.08;71.12;100877.94;5250297;28;20032;-79
2021/07/10 09:57:46;;;;;;;12.60;6.72;;;;;;;24.56;72.70;100873.47;5267409;28;20027;-81
2021/07/10 10:00:19;;;;;;;10.02;6.25;;;;;;;24.03;75.88;100878.13;5250046;28;20020;-81
2021/07/10 10:02:56;;;;;;;9.98;6.00;;;;;;;24.50;75.76;100876.63;5251093;28;20039;-78
2021/07/10 10:05:29;;;;;;;8.15;5.13;;;;;;;25.14;74.10;100868.13;5250663;28;20028;-79
2021/07/10 10:08:04;;;;;;;9.90;5.85;;;;;;;25.75;71.64;100862.34;5248946;28;20020;-79
2021/07/10 10:10:37;;;;;;;9.00;6.10;;;;;;;25.37;67.30;100864.19;5251542;28;20024;-81
2021/07/10 10:13:07;;;;;;;8.75;5.90;;;;;;;27.16;68.82;100853.84;5250519;28;20029;-78
2021/07/10 10:15:39;;;;;;;8.85;5.78;;;;;;;25.74;70.03;100859.78;5269265;28;20025;-77
2021/07/10 10:18:16;;;;;;;7.00;5.88;;;;;;;24.97;73.33;100856.25;5250990;28;20525;-81
2021/07/10 10:20:49;;;;;;;13.98;7.00;;;;;;;24.25;76.54;100861.09;5248294;28;20036;-80
2021/07/10 10:23:21;;;;;;;8.32;5.60;;;;;;;25.22;75.00;100855.75;5249988;28;20437;-81
2021/07/10 10:25:51;;;;;;;11.20;7.03;;;;;;;24.16;77.02;100857.38;5251851;28;20028;-79
2021/07/10 10:28:21;;;;;;;11.05;6.15;;;;;;;24.45;76.04;100855.69;5252989;28;20541;-79
2021/07/10 10:30:55;;;;;;;8.82;6.65;;;;;;;23.67;76.22;100859.88;5250647;28;20036;-78
2021/07/10 10:33:27;;;;;;;10.73;7.35;;;;;;;24.05;78.47;100844.09;5251541;28;20047;-80
2021/07/10 10:35:57;;;;;;;9.43;6.85;;;;;;;24.46;76.75;100856.50;5249094;28;20039;-80
2021/07/10 10:38:28;;;;;;;9.60;6.47;;;;;;;24.27;78.58;100848.44;5251266;28;20414;-81
2021/07/10 10:40:59;;;;;;;9.65;6.75;;;;;;;24.14;78.36;100845.13;5249637;28;20033;-77
2021/07/10 10:43:30;;;;;;;10.10;7.15;;;;;;;23.60;77.26;100842.69;5250820;28;20035;-80
2021/07/10 10:46:23;;;;;;;9.55;6.57;;;;;;;23.64;80.36;100838.78;5251529;28;20456;-78
2021/07/10 10:48:53;;;;;;;11.40;6.75;;;;;;;24.07;78.01;100828.78;5250259;28;20029;-79
2021/07/10 10:51:27;;;;;;;9.93;7.32;;;;;;;23.45;76.75;100836.00;5250045;28;20020;-80
2021/07/10 10:54:19;;;;;;;10.48;6.68;;;;;;;23.90;79.25;100823.22;5250494;28;20024;-78
2021/07/10 10:56:49;;;;;;;9.27;7.07;;;;;;;24.41;75.81;100819.50;5248510;28;20454;-78
2021/07/10 10:59:33;;;;;;;8.55;6.32;;;;;;;24.10;77.53;100825.88;5251689;28;20296;-80
2021/07/10 11:02:24;;;;;;;10.00;6.65;;;;;;;24.05;79.37;100809.38;5249925;28;20058;-79
2021/07/10 11:04:57;;;;;;;9.32;6.50;;;;;;;24.49;73.90;100816.13;5250856;28;20079;-80
2021/07/10 11:07:29;;;;;;;10.30;6.60;;;;;;;24.72;75.93;100812.31;5251138;28;20024;-79
2021/07/10 11:10:02;;;;;;;8.32;6.43;;;;;;;24.32;76.95;100804.28;5247044;28;20021;-80
2021/07/10 11:12:48;;;;;;;9.40;6.10;;;;;;;24.57;76.38;100808.34;5266621;28;20025;-79
2021/07/10 11:15:24;;;;;;;8.43;5.95;;;;;;;24.49;73.54;100810.78;5250494;28;20398;-79
2021/07/10 11:18:00;;;;;;;11.45;6.68;;;;;;;24.53;74.31;100804.25;5251462;28;20094;-79
2021/07/10 11:20:44;;;;;;;10.05;5.88;;;;;;;24.39;75.40;100805.44;5250689;28;20040;-78
2021/07/10 11:23:27;;;;;;;7.53;5.78;;;;;;;;;;5252194;28;20550;-80
2021/07/10 11:26:10;;;;;;;9.82;5.47;;;;;;;24.72;74.08;100794.41;5250101;28;20028;-81
2021/07/10 11:28:40;;;;;;;8.60;5.05;;;;;;;24.72;72.68;100802.44;5248507;28;20103;-80